New Market, Ohio
Current Conditions -  °F | °C
As of 2:54 AM on Friday 31 Oct 2014 (Local Time) from KILN Reporting Station
Overcast Overcast  
Wind Chill: 39°   Ceiling: 7000
Heat Index: 39°   Visibility: 10mi
Dew Point: 33°   Wind: 3mph
Humidity: 79%   Direction: 130°SE
Pressure: 30.02"   Gusts: NA
Location:  39.1546°N, 83.569°W
Report Text: KILN 310654Z AUTO 13003KT 10SM BKN070 OVC085 04/01 A3002 RMK AO2 SLP177 T00390006
Loading
Personal Weather Stations






























Interactive Weather Map
Tropical Storm Tracking
New forecast layout! Learn more

10-Day Weather Forecast

Advertisements
Track Severe Weather on mobile